Collinsville, Connecticut
Current Conditions -  °F | °C
As of 8:51 AM on Thursday 30 Oct 2014 (Local Time) from KBDL Reporting Station
Broken Clouds Broken Clouds  
Wind Chill: 45°   Ceiling: 7500
Heat Index: 45°   Visibility: 10mi
Dew Point: 41°   Wind: 3mph
Humidity: 86%   Direction: 170°S
Pressure: 29.97"   Gusts: NA
Location:  41.82°N, 72.92°W
Report Text: KBDL 301251Z 17003KT 10SM BKN075 07/05 A2997 RMK AO2 SLP150 T00720050
Loading
Personal Weather Stations






























Interactive Weather Map
Tropical Storm Tracking
New forecast layout! Learn more

10-Day Weather Forecast

Advertisements
Track Severe Weather on mobile